sensor_id;sensor_type;location;lat;lon;timestamp;temperature;humidity
67769;DHT22;54569;52.018;5.584;2024-01-30T00:01:55;8.80;81.40
67769;DHT22;54569;52.018;5.584;2024-01-30T00:04:21;8.70;81.60
67769;DHT22;54569;52.018;5.584;2024-01-30T00:06:46;8.80;81.70
67769;DHT22;54569;52.018;5.584;2024-01-30T00:09:12;8.80;81.50
67769;DHT22;54569;52.018;5.584;2024-01-30T00:11:39;8.70;81.80
67769;DHT22;54569;52.018;5.584;2024-01-30T00:14:05;8.70;81.90
67769;DHT22;54569;52.018;5.584;2024-01-30T00:16:31;8.70;81.80
67769;DHT22;54569;52.018;5.584;2024-01-30T00:18:57;8.70;82.30
67769;DHT22;54569;52.018;5.584;2024-01-30T00:21:23;8.70;81.90
67769;DHT22;54569;52.018;5.584;2024-01-30T00:23:49;8.70;82.30
67769;DHT22;54569;52.018;5.584;2024-01-30T00:26:15;8.60;82.60
67769;DHT22;54569;52.018;5.584;2024-01-30T00:28:41;8.70;82.50
67769;DHT22;54569;52.018;5.584;2024-01-30T00:31:08;8.70;82.90
67769;DHT22;54569;52.018;5.584;2024-01-30T00:33:38;8.60;83.00
67769;DHT22;54569;52.018;5.584;2024-01-30T00:36:05;8.70;83.70
67769;DHT22;54569;52.018;5.584;2024-01-30T00:38:31;8.70;83.90
67769;DHT22;54569;52.018;5.584;2024-01-30T00:40:56;8.70;83.10
67769;DHT22;54569;52.018;5.584;2024-01-30T00:43:22;8.60;83.10
67769;DHT22;54569;52.018;5.584;2024-01-30T00:45:50;8.70;83.20
67769;DHT22;54569;52.018;5.584;2024-01-30T00:48:17;8.60;83.00
67769;DHT22;54569;52.018;5.584;2024-01-30T00:50:43;8.60;83.10
67769;DHT22;54569;52.018;5.584;2024-01-30T00:53:09;8.60;82.90
67769;DHT22;54569;52.018;5.584;2024-01-30T00:55:35;8.60;83.00
67769;DHT22;54569;52.018;5.584;2024-01-30T00:58:01;8.60;82.90
67769;DHT22;54569;52.018;5.584;2024-01-30T01:00:27;8.50;82.80
67769;DHT22;54569;52.018;5.584;2024-01-30T01:02:56;8.50;82.80
67769;DHT22;54569;52.018;5.584;2024-01-30T01:05:22;8.50;82.90
67769;DHT22;54569;52.018;5.584;2024-01-30T01:07:47;8.40;82.90
67769;DHT22;54569;52.018;5.584;2024-01-30T01:10:14;8.40;82.80
67769;DHT22;54569;52.018;5.584;2024-01-30T01:12:41;8.30;82.90
67769;DHT22;54569;52.018;5.584;2024-01-30T01:15:07;8.30;83.20
67769;DHT22;54569;52.018;5.584;2024-01-30T01:17:36;8.20;83.20
67769;DHT22;54569;52.018;5.584;2024-01-30T01:20:02;8.20;83.30
67769;DHT22;54569;52.018;5.584;2024-01-30T01:22:28;8.10;83.40
67769;DHT22;54569;52.018;5.584;2024-01-30T01:24:54;8.10;83.40
67769;DHT22;54569;52.018;5.584;2024-01-30T01:27:20;8.10;84.30
67769;DHT22;54569;52.018;5.584;2024-01-30T01:29:46;8.00;84.00
67769;DHT22;54569;52.018;5.584;2024-01-30T01:32:12;7.90;84.00
67769;DHT22;54569;52.018;5.584;2024-01-30T01:34:38;7.90;84.10
67769;DHT22;54569;52.018;5.584;2024-01-30T01:37:04;7.90;84.00
67769;DHT22;54569;52.018;5.584;2024-01-30T01:39:29;7.90;83.90
67769;DHT22;54569;52.018;5.584;2024-01-30T01:41:55;7.90;84.30
67769;DHT22;54569;52.018;5.584;2024-01-30T01:44:22;7.90;84.40
67769;DHT22;54569;52.018;5.584;2024-01-30T01:46:48;7.90;84.50
67769;DHT22;54569;52.018;5.584;2024-01-30T01:49:14;7.90;84.40
67769;DHT22;54569;52.018;5.584;2024-01-30T01:51:41;7.90;85.20
67769;DHT22;54569;52.018;5.584;2024-01-30T01:54:07;7.90;84.60
67769;DHT22;54569;52.018;5.584;2024-01-30T01:56:34;7.90;84.50
67769;DHT22;54569;52.018;5.584;2024-01-30T01:59:05;7.90;84.50
67769;DHT22;54569;52.018;5.584;2024-01-30T02:01:38;7.90;84.30
67769;DHT22;54569;52.018;5.584;2024-01-30T02:04:07;7.80;84.60
67769;DHT22;54569;52.018;5.584;2024-01-30T02:06:34;7.80;85.30
67769;DHT22;54569;52.018;5.584;2024-01-30T02:09:00;7.80;84.80
67769;DHT22;54569;52.018;5.584;2024-01-30T02:11:26;7.80;85.20
67769;DHT22;54569;52.018;5.584;2024-01-30T02:13:52;7.80;84.80
67769;DHT22;54569;52.018;5.584;2024-01-30T02:16:18;7.80;85.80
67769;DHT22;54569;52.018;5.584;2024-01-30T02:18:44;7.80;85.00
67769;DHT22;54569;52.018;5.584;2024-01-30T02:21:17;7.70;85.70
67769;DHT22;54569;52.018;5.584;2024-01-30T02:23:44;7.70;84.90
67769;DHT22;54569;52.018;5.584;2024-01-30T02:26:10;7.70;85.70
67769;DHT22;54569;52.018;5.584;2024-01-30T02:28:37;7.70;85.40
67769;DHT22;54569;52.018;5.584;2024-01-30T02:31:04;7.70;84.80
67769;DHT22;54569;52.018;5.584;2024-01-30T02:33:30;7.70;85.30
67769;DHT22;54569;52.018;5.584;2024-01-30T02:35:55;7.70;84.70
67769;DHT22;54569;52.018;5.584;2024-01-30T02:38:21;7.70;85.00
67769;DHT22;54569;52.018;5.584;2024-01-30T02:40:48;7.70;85.40
67769;DHT22;54569;52.018;5.584;2024-01-30T02:43:15;7.70;85.20
67769;DHT22;54569;52.018;5.584;2024-01-30T02:45:41;7.70;85.20
67769;DHT22;54569;52.018;5.584;2024-01-30T02:48:07;7.70;86.00
67769;DHT22;54569;52.018;5.584;2024-01-30T02:50:32;7.70;85.30
67769;DHT22;54569;52.018;5.584;2024-01-30T02:52:58;7.70;85.00
67769;DHT22;54569;52.018;5.584;2024-01-30T02:55:24;7.70;85.00
67769;DHT22;54569;52.018;5.584;2024-01-30T02:57:49;7.70;85.40
67769;DHT22;54569;52.018;5.584;2024-01-30T03:00:15;7.70;85.70
67769;DHT22;54569;52.018;5.584;2024-01-30T03:02:41;7.70;85.40
67769;DHT22;54569;52.018;5.584;2024-01-30T03:05:08;7.60;85.10
67769;DHT22;54569;52.018;5.584;2024-01-30T03:07:34;7.60;85.40
67769;DHT22;54569;52.018;5.584;2024-01-30T03:09:59;7.60;85.60
67769;DHT22;54569;52.018;5.584;2024-01-30T03:12:25;7.60;85.80
67769;DHT22;54569;52.018;5.584;2024-01-30T03:14:51;7.60;85.70
67769;DHT22;54569;52.018;5.584;2024-01-30T03:17:17;7.50;86.20
67769;DHT22;54569;52.018;5.584;2024-01-30T03:19:42;7.50;86.00
67769;DHT22;54569;52.018;5.584;2024-01-30T03:22:08;7.50;86.10
67769;DHT22;54569;52.018;5.584;2024-01-30T03:24:34;7.50;85.90
67769;DHT22;54569;52.018;5.584;2024-01-30T03:26:59;7.50;86.30
67769;DHT22;54569;52.018;5.584;2024-01-30T03:29:25;7.50;85.80
67769;DHT22;54569;52.018;5.584;2024-01-30T03:31:51;7.50;85.70
67769;DHT22;54569;52.018;5.584;2024-01-30T03:34:17;7.50;85.60
67769;DHT22;54569;52.018;5.584;2024-01-30T03:36:42;7.50;85.60
67769;DHT22;54569;52.018;5.584;2024-01-30T03:39:08;7.40;85.40
67769;DHT22;54569;52.018;5.584;2024-01-30T03:41:34;7.40;85.80
67769;DHT22;54569;52.018;5.584;2024-01-30T03:43:59;7.40;86.00
67769;DHT22;54569;52.018;5.584;2024-01-30T03:46:25;7.40;86.10
67769;DHT22;54569;52.018;5.584;2024-01-30T03:48:51;7.40;86.00
67769;DHT22;54569;52.018;5.584;2024-01-30T03:51:16;7.40;85.70
67769;DHT22;54569;52.018;5.584;2024-01-30T03:53:43;7.40;85.80
67769;DHT22;54569;52.018;5.584;2024-01-30T03:56:09;7.50;86.00
67769;DHT22;54569;52.018;5.584;2024-01-30T03:58:35;7.50;85.90
67769;DHT22;54569;52.018;5.584;2024-01-30T04:01:01;7.50;85.90
67769;DHT22;54569;52.018;5.584;2024-01-30T04:03:26;7.50;86.00
67769;DHT22;54569;52.018;5.584;2024-01-30T04:05:52;7.60;86.00
67769;DHT22;54569;52.018;5.584;2024-01-30T04:08:19;7.60;86.20
67769;DHT22;54569;52.018;5.584;2024-01-30T04:10:44;7.60;85.60
67769;DHT22;54569;52.018;5.584;2024-01-30T04:13:10;7.60;85.80
67769;DHT22;54569;52.018;5.584;2024-01-30T04:15:36;7.60;86.40
67769;DHT22;54569;52.018;5.584;2024-01-30T04:18:02;7.60;86.00
67769;DHT22;54569;52.018;5.584;2024-01-30T04:20:29;7.60;86.10
67769;DHT22;54569;52.018;5.584;2024-01-30T04:22:55;7.70;86.90
67769;DHT22;54569;52.018;5.584;2024-01-30T04:25:21;7.70;86.20
67769;DHT22;54569;52.018;5.584;2024-01-30T04:27:47;7.70;86.60
67769;DHT22;54569;52.018;5.584;2024-01-30T04:30:13;7.70;86.60
67769;DHT22;54569;52.018;5.584;2024-01-30T04:32:39;7.70;86.30
67769;DHT22;54569;52.018;5.584;2024-01-30T04:35:04;7.70;85.80
67769;DHT22;54569;52.018;5.584;2024-01-30T04:37:30;7.70;85.60
67769;DHT22;54569;52.018;5.584;2024-01-30T04:39:56;7.70;85.70
67769;DHT22;54569;52.018;5.584;2024-01-30T04:42:22;7.70;85.90
67769;DHT22;54569;52.018;5.584;2024-01-30T04:44:48;7.70;85.90
67769;DHT22;54569;52.018;5.584;2024-01-30T04:47:14;7.70;86.00
67769;DHT22;54569;52.018;5.584;2024-01-30T04:49:40;7.70;85.80
67769;DHT22;54569;52.018;5.584;2024-01-30T04:52:06;7.70;86.30
67769;DHT22;54569;52.018;5.584;2024-01-30T04:54:34;7.70;86.20
67769;DHT22;54569;52.018;5.584;2024-01-30T04:57:00;7.70;87.10
67769;DHT22;54569;52.018;5.584;2024-01-30T04:59:26;7.80;87.20
67769;DHT22;54569;52.018;5.584;2024-01-30T05:01:51;7.80;87.90
67769;DHT22;54569;52.018;5.584;2024-01-30T05:04:17;7.80;87.10
67769;DHT22;54569;52.018;5.584;2024-01-30T05:06:43;7.90;87.10
67769;DHT22;54569;52.018;5.584;2024-01-30T05:09:09;7.90;88.50
67769;DHT22;54569;52.018;5.584;2024-01-30T05:11:39;7.90;87.60
67769;DHT22;54569;52.018;5.584;2024-01-30T05:14:05;7.90;87.30
67769;DHT22;54569;52.018;5.584;2024-01-30T05:16:31;7.90;87.10
67769;DHT22;54569;52.018;5.584;2024-01-30T05:18:57;8.00;87.00
67769;DHT22;54569;52.018;5.584;2024-01-30T05:21:23;8.00;86.70
67769;DHT22;54569;52.018;5.584;2024-01-30T05:23:49;8.00;86.70
67769;DHT22;54569;52.018;5.584;2024-01-30T05:26:15;8.00;86.40
67769;DHT22;54569;52.018;5.584;2024-01-30T05:28:41;7.90;85.90
67769;DHT22;54569;52.018;5.584;2024-01-30T05:31:07;7.90;86.10
67769;DHT22;54569;52.018;5.584;2024-01-30T05:33:33;7.90;86.40
67769;DHT22;54569;52.018;5.584;2024-01-30T05:35:59;8.00;86.80
67769;DHT22;54569;52.018;5.584;2024-01-30T05:38:25;8.00;88.40
67769;DHT22;54569;52.018;5.584;2024-01-30T05:40:50;8.00;87.10
67769;DHT22;54569;52.018;5.584;2024-01-30T05:43:16;8.00;87.50
67769;DHT22;54569;52.018;5.584;2024-01-30T05:45:42;8.10;88.50
67769;DHT22;54569;52.018;5.584;2024-01-30T05:48:07;8.10;87.90
67769;DHT22;54569;52.018;5.584;2024-01-30T05:50:33;8.10;87.40
67769;DHT22;54569;52.018;5.584;2024-01-30T05:52:59;8.10;87.10
67769;DHT22;54569;52.018;5.584;2024-01-30T05:55:25;8.20;87.90
67769;DHT22;54569;52.018;5.584;2024-01-30T05:57:50;8.20;87.80
67769;DHT22;54569;52.018;5.584;2024-01-30T06:00:18;8.20;87.80
67769;DHT22;54569;52.018;5.584;2024-01-30T06:02:43;8.20;87.70
67769;DHT22;54569;52.018;5.584;2024-01-30T06:05:09;8.30;87.80
67769;DHT22;54569;52.018;5.584;2024-01-30T06:07:35;8.30;87.40
67769;DHT22;54569;52.018;5.584;2024-01-30T06:10:00;8.30;88.10
67769;DHT22;54569;52.018;5.584;2024-01-30T06:12:27;8.30;88.60
67769;DHT22;54569;52.018;5.584;2024-01-30T06:14:54;8.30;87.80
67769;DHT22;54569;52.018;5.584;2024-01-30T06:17:23;8.40;87.90
67769;DHT22;54569;52.018;5.584;2024-01-30T06:19:48;8.40;87.40
67769;DHT22;54569;52.018;5.584;2024-01-30T06:22:15;8.40;87.80
67769;DHT22;54569;52.018;5.584;2024-01-30T06:24:41;8.40;87.20
67769;DHT22;54569;52.018;5.584;2024-01-30T06:27:06;8.30;87.50
67769;DHT22;54569;52.018;5.584;2024-01-30T06:29:32;8.40;88.10
67769;DHT22;54569;52.018;5.584;2024-01-30T06:31:58;8.30;87.70
67769;DHT22;54569;52.018;5.584;2024-01-30T06:34:24;8.30;87.60
67769;DHT22;54569;52.018;5.584;2024-01-30T06:36:49;8.40;86.90
67769;DHT22;54569;52.018;5.584;2024-01-30T06:39:15;8.40;87.50
67769;DHT22;54569;52.018;5.584;2024-01-30T06:41:41;8.40;87.40
67769;DHT22;54569;52.018;5.584;2024-01-30T06:44:06;8.40;87.80
67769;DHT22;54569;52.018;5.584;2024-01-30T06:46:34;8.40;88.00
67769;DHT22;54569;52.018;5.584;2024-01-30T06:48:59;8.40;88.10
67769;DHT22;54569;52.018;5.584;2024-01-30T06:51:25;8.40;87.60
67769;DHT22;54569;52.018;5.584;2024-01-30T06:53:51;8.40;88.50
67769;DHT22;54569;52.018;5.584;2024-01-30T06:56:17;8.40;88.00
67769;DHT22;54569;52.018;5.584;2024-01-30T06:58:50;8.40;87.70
67769;DHT22;54569;52.018;5.584;2024-01-30T07:01:16;8.40;88.10
67769;DHT22;54569;52.018;5.584;2024-01-30T07:03:43;8.40;88.10
67769;DHT22;54569;52.018;5.584;2024-01-30T07:06:10;8.40;88.00
67769;DHT22;54569;52.018;5.584;2024-01-30T07:08:37;8.40;88.20
67769;DHT22;54569;52.018;5.584;2024-01-30T07:11:05;8.40;88.10
67769;DHT22;54569;52.018;5.584;2024-01-30T07:13:32;8.40;88.10
67769;DHT22;54569;52.018;5.584;2024-01-30T07:15:57;8.40;88.10
67769;DHT22;54569;52.018;5.584;2024-01-30T07:18:23;8.40;88.60
67769;DHT22;54569;52.018;5.584;2024-01-30T07:20:49;8.30;88.10
67769;DHT22;54569;52.018;5.584;2024-01-30T07:23:16;8.30;88.00
67769;DHT22;54569;52.018;5.584;2024-01-30T07:25:46;8.30;88.60
67769;DHT22;54569;52.018;5.584;2024-01-30T07:28:14;8.30;88.70
67769;DHT22;54569;52.018;5.584;2024-01-30T07:30:42;8.30;89.00
67769;DHT22;54569;52.018;5.584;2024-01-30T07:33:09;8.40;89.80
67769;DHT22;54569;52.018;5.584;2024-01-30T07:35:35;8.40;89.80
67769;DHT22;54569;52.018;5.584;2024-01-30T07:38:01;8.40;89.80
67769;DHT22;54569;52.018;5.584;2024-01-30T07:40:27;8.50;89.70
67769;DHT22;54569;52.018;5.584;2024-01-30T07:42:53;8.60;90.00
67769;DHT22;54569;52.018;5.584;2024-01-30T07:45:20;8.70;90.10
67769;DHT22;54569;52.018;5.584;2024-01-30T07:47:50;8.70;90.00
67769;DHT22;54569;52.018;5.584;2024-01-30T07:50:16;8.80;90.00
67769;DHT22;54569;52.018;5.584;2024-01-30T07:52:42;8.90;90.20
67769;DHT22;54569;52.018;5.584;2024-01-30T07:55:08;8.90;90.00
67769;DHT22;54569;52.018;5.584;2024-01-30T07:57:34;9.00;90.30
67769;DHT22;54569;52.018;5.584;2024-01-30T08:00:01;9.10;90.50
67769;DHT22;54569;52.018;5.584;2024-01-30T08:02:32;9.20;90.30
67769;DHT22;54569;52.018;5.584;2024-01-30T08:04:58;9.20;90.10
67769;DHT22;54569;52.018;5.584;2024-01-30T08:07:24;9.30;90.20
67769;DHT22;54569;52.018;5.584;2024-01-30T08:09:50;9.30;90.30
67769;DHT22;54569;52.018;5.584;2024-01-30T08:12:15;9.40;90.10
67769;DHT22;54569;52.018;5.584;2024-01-30T08:14:41;9.50;89.90
67769;DHT22;54569;52.018;5.584;2024-01-30T08:17:07;9.50;90.10
67769;DHT22;54569;52.018;5.584;2024-01-30T08:19:33;9.60;90.40
67769;DHT22;54569;52.018;5.584;2024-01-30T08:21:59;9.70;90.30
67769;DHT22;54569;52.018;5.584;2024-01-30T08:24:25;9.80;90.00
67769;DHT22;54569;52.018;5.584;2024-01-30T08:26:50;9.80;90.10
67769;DHT22;54569;52.018;5.584;2024-01-30T08:29:16;9.80;90.00
67769;DHT22;54569;52.018;5.584;2024-01-30T08:31:42;9.80;90.20
67769;DHT22;54569;52.018;5.584;2024-01-30T08:34:08;9.90;89.60
67769;DHT22;54569;52.018;5.584;2024-01-30T08:36:33;9.90;90.10
67769;DHT22;54569;52.018;5.584;2024-01-30T08:38:59;9.90;89.80
67769;DHT22;54569;52.018;5.584;2024-01-30T08:41:25;10.00;90.00
67769;DHT22;54569;52.018;5.584;2024-01-30T08:43:52;10.00;90.10
67769;DHT22;54569;52.018;5.584;2024-01-30T08:46:18;10.00;89.70
67769;DHT22;54569;52.018;5.584;2024-01-30T08:48:44;10.10;89.70
67769;DHT22;54569;52.018;5.584;2024-01-30T08:51:10;10.10;89.90
67769;DHT22;54569;52.018;5.584;2024-01-30T08:53:36;10.10;90.30
67769;DHT22;54569;52.018;5.584;2024-01-30T08:56:03;10.20;90.10
67769;DHT22;54569;52.018;5.584;2024-01-30T08:58:29;10.20;89.90
67769;DHT22;54569;52.018;5.584;2024-01-30T09:00:55;10.30;89.70
67769;DHT22;54569;52.018;5.584;2024-01-30T09:03:21;10.40;89.60
67769;DHT22;54569;52.018;5.584;2024-01-30T09:05:46;10.40;89.30
67769;DHT22;54569;52.018;5.584;2024-01-30T09:08:12;10.50;89.20
67769;DHT22;54569;52.018;5.584;2024-01-30T09:10:38;10.50;89.60
67769;DHT22;54569;52.018;5.584;2024-01-30T09:13:04;10.50;89.30
67769;DHT22;54569;52.018;5.584;2024-01-30T09:15:29;10.50;89.50
67769;DHT22;54569;52.018;5.584;2024-01-30T09:17:55;10.50;89.30
67769;DHT22;54569;52.018;5.584;2024-01-30T09:20:21;10.60;89.50
67769;DHT22;54569;52.018;5.584;2024-01-30T09:22:48;10.60;89.00
67769;DHT22;54569;52.018;5.584;2024-01-30T09:25:14;10.70;89.40
67769;DHT22;54569;52.018;5.584;2024-01-30T09:27:40;10.70;89.50
67769;DHT22;54569;52.018;5.584;2024-01-30T09:30:07;10.70;89.50
67769;DHT22;54569;52.018;5.584;2024-01-30T09:32:33;10.80;89.80
67769;DHT22;54569;52.018;5.584;2024-01-30T09:34:58;10.80;89.50
67769;DHT22;54569;52.018;5.584;2024-01-30T09:37:24;11.00;89.80
67769;DHT22;54569;52.018;5.584;2024-01-30T09:39:50;11.70;90.10
67769;DHT22;54569;52.018;5.584;2024-01-30T09:44:51;12.50;86.60
67769;DHT22;54569;52.018;5.584;2024-01-30T09:47:17;12.60;85.10
67769;DHT22;54569;52.018;5.584;2024-01-30T09:49:43;12.40;85.00
67769;DHT22;54569;52.018;5.584;2024-01-30T09:52:10;12.20;85.20
67769;DHT22;54569;52.018;5.584;2024-01-30T09:54:36;12.10;85.60
67769;DHT22;54569;52.018;5.584;2024-01-30T09:57:04;11.90;86.10
67769;DHT22;54569;52.018;5.584;2024-01-30T09:59:30;11.80;86.50
67769;DHT22;54569;52.018;5.584;2024-01-30T10:01:57;11.80;87.10
67769;DHT22;54569;52.018;5.584;2024-01-30T10:04:23;11.60;87.40
67769;DHT22;54569;52.018;5.584;2024-01-30T10:06:48;11.60;87.90
67769;DHT22;54569;52.018;5.584;2024-01-30T10:09:15;11.50;88.10
67769;DHT22;54569;52.018;5.584;2024-01-30T10:11:40;11.50;88.90
67769;DHT22;54569;52.018;5.584;2024-01-30T10:14:06;11.50;89.10
67769;DHT22;54569;52.018;5.584;2024-01-30T10:16:32;11.40;89.00
67769;DHT22;54569;52.018;5.584;2024-01-30T10:18:57;11.40;89.30
67769;DHT22;54569;52.018;5.584;2024-01-30T10:21:23;11.50;90.00
67769;DHT22;54569;52.018;5.584;2024-01-30T10:23:50;11.40;90.00
67769;DHT22;54569;52.018;5.584;2024-01-30T10:26:18;11.50;89.90
67769;DHT22;54569;52.018;5.584;2024-01-30T10:28:44;11.50;89.80
67769;DHT22;54569;52.018;5.584;2024-01-30T10:31:10;11.50;89.90
67769;DHT22;54569;52.018;5.584;2024-01-30T10:33:36;11.60;90.00
67769;DHT22;54569;52.018;5.584;2024-01-30T10:36:03;11.60;89.60
67769;DHT22;54569;52.018;5.584;2024-01-30T10:38:30;11.70;89.50
67769;DHT22;54569;52.018;5.584;2024-01-30T10:40:57;11.70;89.30
67769;DHT22;54569;52.018;5.584;2024-01-30T10:43:32;11.80;89.20
67769;DHT22;54569;52.018;5.584;2024-01-30T10:46:10;12.00;89.70
67769;DHT22;54569;52.018;5.584;2024-01-30T10:48:42;12.30;88.40
67769;DHT22;54569;52.018;5.584;2024-01-30T10:51:10;12.70;87.10
67769;DHT22;54569;52.018;5.584;2024-01-30T10:53:36;12.90;86.40
67769;DHT22;54569;52.018;5.584;2024-01-30T10:56:03;13.20;86.20
67769;DHT22;54569;52.018;5.584;2024-01-30T10:58:29;13.60;84.60
67769;DHT22;54569;52.018;5.584;2024-01-30T11:00:56;13.70;83.50
67769;DHT22;54569;52.018;5.584;2024-01-30T11:03:22;13.70;83.00
67769;DHT22;54569;52.018;5.584;2024-01-30T11:05:52;13.90;83.30
67769;DHT22;54569;52.018;5.584;2024-01-30T11:08:24;13.90;82.30
67769;DHT22;54569;52.018;5.584;2024-01-30T11:10:56;13.80;81.70
67769;DHT22;54569;52.018;5.584;2024-01-30T11:13:27;13.60;82.00
67769;DHT22;54569;52.018;5.584;2024-01-30T11:15:53;13.30;82.30
67769;DHT22;54569;52.018;5.584;2024-01-30T11:18:26;13.10;82.80
67769;DHT22;54569;52.018;5.584;2024-01-30T11:20:56;13.00;82.90
67769;DHT22;54569;52.018;5.584;2024-01-30T11:23:22;12.90;83.10
67769;DHT22;54569;52.018;5.584;2024-01-30T11:25:48;12.80;83.60
67769;DHT22;54569;52.018;5.584;2024-01-30T11:28:15;12.70;83.80
67769;DHT22;54569;52.018;5.584;2024-01-30T11:30:44;12.60;83.90
67769;DHT22;54569;52.018;5.584;2024-01-30T11:33:11;12.50;84.10
67769;DHT22;54569;52.018;5.584;2024-01-30T11:35:38;12.50;84.20
67769;DHT22;54569;52.018;5.584;2024-01-30T11:38:05;12.40;84.30
67769;DHT22;54569;52.018;5.584;2024-01-30T11:40:33;12.40;84.40
67769;DHT22;54569;52.018;5.584;2024-01-30T11:43:00;12.40;84.40
67769;DHT22;54569;52.018;5.584;2024-01-30T11:45:29;12.40;84.30
67769;DHT22;54569;52.018;5.584;2024-01-30T11:47:55;12.40;84.00
67769;DHT22;54569;52.018;5.584;2024-01-30T11:50:21;12.40;83.50
67769;DHT22;54569;52.018;5.584;2024-01-30T11:52:50;12.40;83.30
67769;DHT22;54569;52.018;5.584;2024-01-30T11:55:16;12.50;83.00
67769;DHT22;54569;52.018;5.584;2024-01-30T11:57:43;12.70;82.30
67769;DHT22;54569;52.018;5.584;2024-01-30T12:00:19;12.80;81.50
67769;DHT22;54569;52.018;5.584;2024-01-30T12:02:53;12.90;81.50
67769;DHT22;54569;52.018;5.584;2024-01-30T12:05:25;12.90;81.00
67769;DHT22;54569;52.018;5.584;2024-01-30T12:07:51;12.80;81.00
67769;DHT22;54569;52.018;5.584;2024-01-30T12:10:17;12.70;81.20
67769;DHT22;54569;52.018;5.584;2024-01-30T12:12:47;12.60;82.30
67769;DHT22;54569;52.018;5.584;2024-01-30T12:15:13;12.60;81.80
67769;DHT22;54569;52.018;5.584;2024-01-30T12:17:40;12.70;82.00
67769;DHT22;54569;52.018;5.584;2024-01-30T12:20:11;12.90;81.50
67769;DHT22;54569;52.018;5.584;2024-01-30T12:22:38;12.90;81.00
67769;DHT22;54569;52.018;5.584;2024-01-30T12:25:07;12.80;80.70
67769;DHT22;54569;52.018;5.584;2024-01-30T12:27:34;12.60;80.70
67769;DHT22;54569;52.018;5.584;2024-01-30T12:29:59;12.40;80.70
67769;DHT22;54569;52.018;5.584;2024-01-30T12:32:25;12.20;81.20
67769;DHT22;54569;52.018;5.584;2024-01-30T12:34:55;12.10;81.40
67769;DHT22;54569;52.018;5.584;2024-01-30T12:37:22;12.10;81.50
67769;DHT22;54569;52.018;5.584;2024-01-30T12:39:51;12.20;81.50
67769;DHT22;54569;52.018;5.584;2024-01-30T12:42:18;12.20;81.10
67769;DHT22;54569;52.018;5.584;2024-01-30T12:44:44;12.20;81.00
67769;DHT22;54569;52.018;5.584;2024-01-30T12:47:10;12.30;81.40
67769;DHT22;54569;52.018;5.584;2024-01-30T12:49:36;12.40;80.50
67769;DHT22;54569;52.018;5.584;2024-01-30T12:52:02;12.30;79.50
67769;DHT22;54569;52.018;5.584;2024-01-30T12:54:28;12.20;79.50
67769;DHT22;54569;52.018;5.584;2024-01-30T12:56:54;12.10;79.80
67769;DHT22;54569;52.018;5.584;2024-01-30T12:59:19;12.00;79.90
67769;DHT22;54569;52.018;5.584;2024-01-30T13:01:45;11.90;80.20
67769;DHT22;54569;52.018;5.584;2024-01-30T13:04:11;11.70;80.80
67769;DHT22;54569;52.018;5.584;2024-01-30T13:06:37;11.50;81.30
67769;DHT22;54569;52.018;5.584;2024-01-30T13:09:03;11.30;81.80
67769;DHT22;54569;52.018;5.584;2024-01-30T13:11:28;11.10;82.30
67769;DHT22;54569;52.018;5.584;2024-01-30T13:13:54;11.00;82.50
67769;DHT22;54569;52.018;5.584;2024-01-30T13:16:20;10.80;82.90
67769;DHT22;54569;52.018;5.584;2024-01-30T13:18:46;10.70;83.00
67769;DHT22;54569;52.018;5.584;2024-01-30T13:21:11;10.70;83.20
67769;DHT22;54569;52.018;5.584;2024-01-30T13:23:37;10.60;83.40
67769;DHT22;54569;52.018;5.584;2024-01-30T13:26:03;10.50;83.70
67769;DHT22;54569;52.018;5.584;2024-01-30T13:28:29;10.50;83.90
67769;DHT22;54569;52.018;5.584;2024-01-30T13:30:54;10.40;83.90
67769;DHT22;54569;52.018;5.584;2024-01-30T13:33:20;10.40;84.00
67769;DHT22;54569;52.018;5.584;2024-01-30T13:35:46;10.30;84.10
67769;DHT22;54569;52.018;5.584;2024-01-30T13:38:12;10.30;84.00
67769;DHT22;54569;52.018;5.584;2024-01-30T13:40:39;10.30;84.10
67769;DHT22;54569;52.018;5.584;2024-01-30T13:43:04;10.30;84.00
67769;DHT22;54569;52.018;5.584;2024-01-30T13:45:30;10.40;84.00
67769;DHT22;54569;52.018;5.584;2024-01-30T13:47:56;10.40;84.00
67769;DHT22;54569;52.018;5.584;2024-01-30T13:50:21;10.40;83.90
67769;DHT22;54569;52.018;5.584;2024-01-30T13:52:47;10.50;83.90
67769;DHT22;54569;52.018;5.584;2024-01-30T13:55:13;10.50;83.90
67769;DHT22;54569;52.018;5.584;2024-01-30T13:57:39;10.50;83.70
67769;DHT22;54569;52.018;5.584;2024-01-30T14:00:05;10.40;83.80
67769;DHT22;54569;52.018;5.584;2024-01-30T14:02:40;10.40;84.00
67769;DHT22;54569;52.018;5.584;2024-01-30T14:05:06;10.30;84.00
67769;DHT22;54569;52.018;5.584;2024-01-30T14:07:31;10.30;84.30
67769;DHT22;54569;52.018;5.584;2024-01-30T14:09:58;10.30;84.20
67769;DHT22;54569;52.018;5.584;2024-01-30T14:12:23;10.40;84.30
67769;DHT22;54569;52.018;5.584;2024-01-30T14:14:49;10.30;84.30
67769;DHT22;54569;52.018;5.584;2024-01-30T14:17:15;10.30;84.40
67769;DHT22;54569;52.018;5.584;2024-01-30T14:19:41;10.30;84.40
67769;DHT22;54569;52.018;5.584;2024-01-30T14:22:06;10.30;84.70
67769;DHT22;54569;52.018;5.584;2024-01-30T14:24:32;10.20;85.30
67769;DHT22;54569;52.018;5.584;2024-01-30T14:26:58;10.10;85.50
67769;DHT22;54569;52.018;5.584;2024-01-30T14:29:25;10.10;85.80
67769;DHT22;54569;52.018;5.584;2024-01-30T14:31:50;10.00;86.30
67769;DHT22;54569;52.018;5.584;2024-01-30T14:34:16;10.00;86.10
67769;DHT22;54569;52.018;5.584;2024-01-30T14:36:43;10.00;86.30
67769;DHT22;54569;52.018;5.584;2024-01-30T14:39:08;10.00;86.40
67769;DHT22;54569;52.018;5.584;2024-01-30T14:41:35;9.90;86.80
67769;DHT22;54569;52.018;5.584;2024-01-30T14:44:01;9.90;86.40
67769;DHT22;54569;52.018;5.584;2024-01-30T14:46:26;9.90;86.90
67769;DHT22;54569;52.018;5.584;2024-01-30T14:48:53;9.90;86.60
67769;DHT22;54569;52.018;5.584;2024-01-30T14:51:18;9.90;86.80
67769;DHT22;54569;52.018;5.584;2024-01-30T14:53:44;9.90;87.10
67769;DHT22;54569;52.018;5.584;2024-01-30T14:56:10;9.90;87.20
67769;DHT22;54569;52.018;5.584;2024-01-30T14:58:37;9.90;87.20
67769;DHT22;54569;52.018;5.584;2024-01-30T15:01:03;9.80;87.30
67769;DHT22;54569;52.018;5.584;2024-01-30T15:03:28;9.80;87.40
67769;DHT22;54569;52.018;5.584;2024-01-30T15:05:55;9.80;87.30
67769;DHT22;54569;52.018;5.584;2024-01-30T15:08:21;9.80;87.40
67769;DHT22;54569;52.018;5.584;2024-01-30T15:10:47;9.80;87.60
67769;DHT22;54569;52.018;5.584;2024-01-30T15:13:15;9.70;87.60
67769;DHT22;54569;52.018;5.584;2024-01-30T15:15:41;9.70;87.90
67769;DHT22;54569;52.018;5.584;2024-01-30T15:18:08;9.70;88.10
67769;DHT22;54569;52.018;5.584;2024-01-30T15:20:36;9.60;88.20
67769;DHT22;54569;52.018;5.584;2024-01-30T15:23:02;9.60;89.80
67769;DHT22;54569;52.018;5.584;2024-01-30T15:25:28;9.50;89.40
67769;DHT22;54569;52.018;5.584;2024-01-30T15:27:54;9.50;89.50
67769;DHT22;54569;52.018;5.584;2024-01-30T15:30:20;9.50;89.30
67769;DHT22;54569;52.018;5.584;2024-01-30T15:32:46;9.50;89.30
67769;DHT22;54569;52.018;5.584;2024-01-30T15:35:12;9.50;89.90
67769;DHT22;54569;52.018;5.584;2024-01-30T15:37:38;9.40;90.10